createdAt,value
2019-02-04T00:07:23.286Z,1.10
2019-02-04T00:12:25.507Z,1.06
2019-02-04T00:17:27.731Z,1.03
2019-02-04T00:22:30.844Z,1.04
2019-02-04T00:27:33.579Z,1.04
2019-02-04T00:32:36.249Z,1.01
2019-02-04T00:37:38.414Z,0.99
2019-02-04T00:42:41.105Z,0.90
2019-02-04T00:47:43.527Z,0.86
2019-02-04T00:52:46.512Z,0.81
2019-02-04T00:57:49.341Z,0.77
2019-02-04T01:02:52.007Z,0.74
2019-02-04T01:07:54.753Z,0.68
2019-02-04T01:12:57.656Z,0.65
2019-02-04T01:18:00.816Z,0.61
2019-02-04T01:23:03.233Z,0.57
2019-02-04T01:28:05.977Z,0.58
2019-02-04T01:33:08.300Z,0.53
2019-02-04T01:38:11.597Z,0.55
2019-02-04T01:43:14.356Z,0.50
2019-02-04T01:48:17.204Z,0.43
2019-02-04T01:53:20.270Z,0.40
2019-02-04T01:58:22.741Z,0.36
2019-02-04T02:03:25.710Z,0.37
2019-02-04T02:08:27.935Z,0.34
2019-02-04T02:13:31.084Z,0.33
2019-02-04T02:18:33.907Z,0.32
2019-02-04T02:23:36.706Z,0.30
2019-02-04T02:28:38.905Z,0.29
2019-02-04T02:33:41.110Z,0.20
2019-02-04T02:38:44.077Z,0.20
2019-02-04T02:43:47.610Z,0.20
2019-02-04T02:48:49.809Z,0.22
2019-02-04T02:53:51.984Z,0.23
2019-02-04T02:58:54.517Z,0.25
2019-02-04T03:03:57.068Z,0.24
2019-02-04T03:08:59.297Z,0.25
2019-02-04T03:14:01.908Z,0.25
2019-02-04T03:19:04.116Z,0.23
2019-02-04T03:24:07.196Z,0.19
2019-02-04T03:29:09.695Z,0.18
2019-02-04T03:34:12.394Z,0.16
2019-02-04T03:39:15.389Z,0.13
2019-02-04T03:44:17.867Z,0.11
2019-02-04T03:49:20.710Z,0.06
2019-02-04T03:54:23.194Z,0.02
2019-02-04T03:59:25.970Z,0.04
2019-02-04T04:04:28.704Z,0.01
2019-02-04T04:09:30.840Z,0.00
2019-02-04T04:14:33.071Z,-0.01
2019-02-04T04:19:35.643Z,0.00
2019-02-04T04:24:39.042Z,-0.06
2019-02-04T04:29:42.152Z,-0.10
2019-02-04T04:34:45.279Z,-0.08
2019-02-04T04:39:48.068Z,-0.08
2019-02-04T04:44:50.856Z,-0.12
2019-02-04T04:49:53.653Z,-0.13
2019-02-04T04:54:56.566Z,-0.13
2019-02-04T04:59:59.616Z,-0.15
2019-02-04T05:05:01.807Z,-0.20
2019-02-04T05:10:06.863Z,-0.21
2019-02-04T05:15:11.775Z,-0.22
2019-02-04T05:20:17.501Z,-0.19
2019-02-04T05:25:20.246Z,-0.15
2019-02-04T05:30:24.018Z,-0.17
2019-02-04T05:35:26.166Z,-0.15
2019-02-04T05:40:29.162Z,-0.13
2019-02-04T05:45:32.596Z,-0.13
2019-02-04T05:50:54.455Z,-0.15
2019-02-04T05:55:56.648Z,-0.19
2019-02-04T06:00:59.504Z,-0.22
2019-02-04T06:06:02.252Z,-0.19
2019-02-04T06:11:04.527Z,-0.15
2019-02-04T06:16:06.835Z,-0.15
2019-02-04T06:21:09.847Z,-0.18
2019-02-04T06:26:12.844Z,-0.26
2019-02-04T06:31:15.040Z,-0.34
2019-02-04T06:36:17.336Z,-0.42
2019-02-04T06:41:19.561Z,-0.43
2019-02-04T06:46:21.844Z,-0.38
2019-02-04T06:51:24.691Z,-0.38
2019-02-04T06:56:27.298Z,-0.39
2019-02-04T07:01:30.005Z,-0.39
2019-02-04T07:06:32.313Z,-0.32
2019-02-04T07:11:34.875Z,-0.27
2019-02-04T07:16:37.445Z,-0.27
2019-02-04T07:21:40.840Z,-0.28
2019-02-04T07:26:43.061Z,-0.28
2019-02-04T07:31:45.207Z,-0.22
2019-02-04T07:36:47.394Z,-0.17
2019-02-04T07:41:49.587Z,-0.14
2019-02-04T07:46:51.874Z,-0.16
2019-02-04T07:51:54.072Z,-0.17
2019-02-04T07:56:56.566Z,-0.13
2019-02-04T08:01:58.991Z,0.00
2019-02-04T08:07:01.234Z,0.37
2019-02-04T08:12:03.735Z,0.62
2019-02-04T08:17:06.411Z,0.82
2019-02-04T08:22:08.770Z,0.95
2019-02-04T08:27:10.953Z,1.23
2019-02-04T08:32:13.567Z,1.44
2019-02-04T08:37:16.146Z,1.83
2019-02-04T08:42:18.343Z,2.05
2019-02-04T08:47:22.715Z,2.36
2019-02-04T08:52:24.932Z,2.56
2019-02-04T08:57:27.088Z,2.71
2019-02-04T09:02:29.290Z,2.69
2019-02-04T09:07:31.737Z,3.05
2019-02-04T09:12:34.977Z,3.20
2019-02-04T09:17:37.805Z,3.66
2019-02-04T09:22:40.562Z,4.13
2019-02-04T09:27:43.145Z,5.26
2019-02-04T09:32:46.073Z,4.64
2019-02-04T09:37:49.707Z,4.97
2019-02-04T09:42:52.303Z,5.66
2019-02-04T09:47:55.618Z,6.21
2019-02-04T09:52:57.894Z,6.25
2019-02-04T09:58:00.975Z,5.75
2019-02-04T10:03:04.063Z,6.36
2019-02-04T10:08:07.186Z,6.38
2019-02-04T10:13:09.594Z,6.99
2019-02-04T10:18:12.491Z,7.60
2019-02-04T10:23:15.511Z,7.85
2019-02-04T10:28:18.320Z,8.26
2019-02-04T10:33:21.139Z,7.35
2019-02-04T10:38:23.610Z,7.30
2019-02-04T10:43:25.980Z,7.15
2019-02-04T10:48:29.535Z,7.66
2019-02-04T10:53:32.117Z,8.14
2019-02-04T10:58:34.350Z,8.55
2019-02-04T11:03:36.957Z,8.34
2019-02-04T11:08:39.185Z,8.78
2019-02-04T11:13:41.875Z,9.20
2019-02-04T11:18:44.230Z,9.44
2019-02-04T11:23:46.474Z,9.46
2019-02-04T11:28:48.764Z,9.40
2019-02-04T11:33:51.396Z,9.19
2019-02-04T11:38:54.210Z,9.19
2019-02-04T11:43:56.807Z,9.33
2019-02-04T11:48:59.406Z,9.64
2019-02-04T11:54:01.864Z,9.75
2019-02-04T11:59:04.436Z,10.09
2019-02-04T12:04:07.501Z,10.31
2019-02-04T12:09:11.113Z,10.68
2019-02-04T12:14:15.496Z,10.15
2019-02-04T12:19:17.854Z,10.42
2019-02-04T12:24:20.499Z,9.48
2019-02-04T12:29:22.893Z,9.13
2019-02-04T12:34:25.339Z,9.11
2019-02-04T12:39:27.513Z,9.25
2019-02-04T12:44:30.040Z,9.21
2019-02-04T12:49:32.844Z,9.39
2019-02-04T12:54:35.745Z,9.61
2019-02-04T12:59:38.568Z,9.18
2019-02-04T13:04:41.304Z,8.76
2019-02-04T13:09:44.037Z,8.93
2019-02-04T13:14:46.748Z,8.83
2019-02-04T13:19:49.441Z,8.39
2019-02-04T13:24:52.138Z,8.61
2019-02-04T13:29:55.230Z,8.69
2019-02-04T13:34:57.835Z,9.04
2019-02-04T13:40:01.167Z,9.49
2019-02-04T13:45:08.462Z,9.89
2019-02-04T13:50:11.683Z,9.35
2019-02-04T13:55:24.533Z,8.99
2019-02-04T14:00:27.621Z,8.89
2019-02-04T14:05:31.489Z,8.66
2019-02-04T14:10:38.433Z,8.29
2019-02-04T14:15:41.458Z,8.23
2019-02-04T14:20:44.690Z,8.36
2019-02-04T14:25:47.128Z,8.26
2019-02-04T14:30:49.979Z,8.21
2019-02-04T14:35:52.754Z,8.16
2019-02-04T14:40:55.850Z,8.31
2019-02-04T14:46:35.802Z,8.12
2019-02-04T14:52:21.419Z,7.82
2019-02-04T14:58:10.549Z,7.79
2019-02-04T15:03:32.930Z,7.64
2019-02-04T15:09:29.675Z,7.11
2019-02-04T15:15:12.027Z,7.01
2019-02-04T15:20:52.214Z,6.94
2019-02-04T15:26:43.516Z,6.84
2019-02-04T15:32:35.300Z,6.72
2019-02-04T15:38:00.832Z,6.59
2019-02-04T15:43:53.174Z,6.55
2019-02-04T15:50:20.379Z,6.36
2019-02-04T15:55:23.265Z,6.30
2019-02-04T16:00:25.799Z,6.18
2019-02-04T16:05:27.994Z,6.00
2019-02-04T16:10:30.560Z,5.89
2019-02-04T16:15:33.546Z,5.82
2019-02-04T16:20:36.539Z,5.79
2019-02-04T16:25:39.353Z,5.60
2019-02-04T16:30:41.732Z,5.47
2019-02-04T16:35:44.416Z,5.40
2019-02-04T16:40:46.602Z,5.18
2019-02-04T16:45:49.163Z,5.00
2019-02-04T16:51:03.546Z,4.94
2019-02-04T16:55:57.242Z,4.72
2019-02-04T17:00:59.800Z,4.56
2019-02-04T17:06:02.369Z,4.49
2019-02-04T17:11:05.047Z,4.50
2019-02-04T17:16:07.438Z,4.39
2019-02-04T17:21:09.967Z,4.39
2019-02-04T17:26:12.297Z,4.32
2019-02-04T17:31:14.923Z,4.25
2019-02-04T17:36:17.617Z,4.17
2019-02-04T17:41:20.161Z,4.05
2019-02-04T17:46:23.010Z,3.95
2019-02-04T17:51:25.479Z,3.87
2019-02-04T17:56:27.833Z,3.78
2019-02-04T18:01:30.324Z,3.76
2019-02-04T18:06:32.511Z,3.70
2019-02-04T18:11:35.252Z,3.58
2019-02-04T18:16:37.841Z,3.49
2019-02-04T18:21:40.640Z,3.42
2019-02-04T18:26:42.863Z,3.44
2019-02-04T18:31:45.309Z,3.32
2019-02-04T18:36:48.856Z,3.29
2019-02-04T18:41:51.204Z,3.23
2019-02-04T18:46:53.480Z,3.23
2019-02-04T18:51:56.523Z,3.14
2019-02-04T18:56:59.006Z,3.11
2019-02-04T19:02:01.452Z,3.09
2019-02-04T19:07:04.637Z,3.17
2019-02-04T19:12:07.493Z,3.17
2019-02-04T19:17:10.517Z,3.22
2019-02-04T19:22:12.874Z,3.21
2019-02-04T19:27:15.411Z,3.11
2019-02-04T19:32:18.164Z,3.12
2019-02-04T19:37:22.894Z,3.06
2019-02-04T19:42:24.635Z,3.04
2019-02-04T19:47:27.189Z,3.01
2019-02-04T19:52:29.414Z,3.00
2019-02-04T19:57:31.599Z,2.90
2019-02-04T20:02:33.843Z,2.89
2019-02-04T20:07:37.249Z,2.86
2019-02-04T20:12:39.745Z,2.83
2019-02-04T20:17:42.358Z,2.81
2019-02-04T20:22:45.175Z,2.73
2019-02-04T20:27:48.459Z,2.67
2019-02-04T20:32:51.054Z,2.65
2019-02-04T20:37:53.327Z,2.68
2019-02-04T20:42:56.055Z,2.70
2019-02-04T20:47:58.887Z,2.70
2019-02-04T20:53:01.104Z,2.67
2019-02-04T20:58:04.985Z,2.62
2019-02-04T21:03:08.554Z,2.62
2019-02-04T21:08:12.783Z,2.64
2019-02-04T21:13:15.725Z,2.64
2019-02-04T21:18:18.324Z,2.63
2019-02-04T21:23:20.513Z,2.58
2019-02-04T21:28:23.376Z,2.56
2019-02-04T21:33:27.343Z,2.50
2019-02-04T21:38:30.637Z,2.40
2019-02-04T21:43:33.171Z,2.37
2019-02-04T21:48:36.223Z,2.33
2019-02-04T21:53:39.125Z,2.34
2019-02-04T21:58:41.617Z,2.33
2019-02-04T22:03:44.342Z,2.35
2019-02-04T22:08:46.676Z,2.35
2019-02-04T22:13:49.703Z,2.28
2019-02-04T22:18:52.760Z,2.26
2019-02-04T22:23:54.974Z,2.33
2019-02-04T22:28:57.137Z,2.30
2019-02-04T22:34:00.088Z,2.29
2019-02-04T22:39:07.801Z,2.28
2019-02-04T22:44:10.464Z,2.26
2019-02-04T22:49:13.239Z,2.23
2019-02-04T22:54:16.105Z,2.20
2019-02-04T22:59:18.301Z,2.19
2019-02-04T23:04:20.640Z,2.22
2019-02-04T23:09:23.106Z,2.25
2019-02-04T23:14:25.762Z,2.22
2019-02-04T23:19:28.063Z,2.27
2019-02-04T23:24:30.344Z,2.22
2019-02-04T23:29:32.694Z,2.18
2019-02-04T23:34:34.898Z,2.20
2019-02-04T23:39:37.824Z,2.13
2019-02-04T23:44:40.034Z,2.14
2019-02-04T23:49:43.189Z,2.11
2019-02-04T23:54:45.966Z,2.08
2019-02-04T23:59:48.099Z,2.10
